createdAt,value
2018-07-04T00:00:21.108Z,6.73
2018-07-04T00:03:01.043Z,8.20
2018-07-04T00:05:40.814Z,8.20
2018-07-04T00:08:20.664Z,7.13
2018-07-04T00:11:00.379Z,7.33
2018-07-04T00:13:40.133Z,8.17
2018-07-04T00:16:20.073Z,7.40
2018-07-04T00:18:59.943Z,7.60
2018-07-04T00:21:39.680Z,5.67
2018-07-04T00:24:19.578Z,6.93
2018-07-04T00:26:59.325Z,5.73
2018-07-04T00:29:38.897Z,6.40
2018-07-04T00:32:18.567Z,6.70
2018-07-04T00:34:58.238Z,6.07
2018-07-04T00:37:38.027Z,6.77
2018-07-04T00:40:17.976Z,5.40
2018-07-04T00:42:57.885Z,6.63
2018-07-04T00:45:37.736Z,8.30
2018-07-04T00:48:17.565Z,7.87
2018-07-04T00:50:57.412Z,7.23
2018-07-04T00:53:37.290Z,6.00
2018-07-04T00:59:12.090Z,5.90
2018-07-04T01:01:51.830Z,7.40
2018-07-04T01:04:31.623Z,6.53
2018-07-04T01:07:11.404Z,6.63
2018-07-04T01:09:51.273Z,6.50
2018-07-04T01:12:31.248Z,10.33
2018-07-04T01:15:11.167Z,6.33
2018-07-04T01:17:51.034Z,6.93
2018-07-04T01:20:35.044Z,6.83
2018-07-04T01:23:14.987Z,5.50
2018-07-04T01:25:54.802Z,6.47
2018-07-04T01:28:39.951Z,6.00
2018-07-04T01:31:19.884Z,5.63
2018-07-04T01:33:59.726Z,6.30
2018-07-04T01:36:39.621Z,5.97
2018-07-04T01:39:19.443Z,7.50
2018-07-04T01:41:59.312Z,7.80
2018-07-04T01:44:39.206Z,9.80
2018-07-04T01:47:18.933Z,8.80
2018-07-04T01:49:58.733Z,17.77
2018-07-04T01:52:38.451Z,5.50
2018-07-04T01:55:18.392Z,6.50
2018-07-04T01:57:58.430Z,8.07
2018-07-04T02:00:38.036Z,7.57
2018-07-04T02:03:17.817Z,6.50
2018-07-04T02:05:57.626Z,7.20
2018-07-04T02:08:37.398Z,8.10
2018-07-04T02:11:17.056Z,8.10
2018-07-04T02:13:56.622Z,8.17
2018-07-04T02:16:36.448Z,7.50
2018-07-04T02:19:16.318Z,8.37
2018-07-04T02:21:56.073Z,6.73
2018-07-04T02:24:35.951Z,6.67
2018-07-04T02:27:15.846Z,6.87
2018-07-04T02:29:55.518Z,7.00
2018-07-04T02:32:35.197Z,7.77
2018-07-04T02:35:14.724Z,7.60
2018-07-04T02:37:54.577Z,9.53
2018-07-04T02:40:34.411Z,7.80
2018-07-04T02:43:14.078Z,6.90
2018-07-04T02:45:53.774Z,7.37
2018-07-04T02:48:33.482Z,7.20
2018-07-04T02:51:13.225Z,8.80
2018-07-04T02:53:47.017Z,6.90
2018-07-04T02:56:26.746Z,11.67
2018-07-04T03:07:44.914Z,7.50
2018-07-04T03:10:24.542Z,8.60
2018-07-04T03:13:04.405Z,7.23
2018-07-04T03:15:44.078Z,7.03
2018-07-04T03:18:23.952Z,8.57
2018-07-04T03:21:03.678Z,6.60
2018-07-04T03:23:43.398Z,7.87
2018-07-04T03:26:23.276Z,7.13
2018-07-04T03:29:03.014Z,7.40
2018-07-04T03:31:42.758Z,8.00
2018-07-04T03:34:22.608Z,7.43
2018-07-04T03:37:02.486Z,8.17
2018-07-04T03:39:42.198Z,8.27
2018-07-04T03:42:22.088Z,8.10
2018-07-04T03:45:01.814Z,7.40
2018-07-04T03:47:41.499Z,7.83
2018-07-04T03:50:21.357Z,7.60
2018-07-04T03:53:01.306Z,8.70
2018-07-04T03:55:41.173Z,7.60
2018-07-04T03:58:20.946Z,7.23
2018-07-04T04:00:54.641Z,12.10
2018-07-04T04:06:31.064Z,8.30
2018-07-04T04:09:11.098Z,7.30
2018-07-04T04:11:50.974Z,7.23
2018-07-04T04:14:30.914Z,7.70
2018-07-04T04:17:10.694Z,7.07
2018-07-04T04:19:51.344Z,6.83
2018-07-04T04:22:31.250Z,13.10
2018-07-04T04:25:10.903Z,7.53
2018-07-04T04:27:50.598Z,6.80
2018-07-04T04:30:30.502Z,7.07
2018-07-04T04:33:10.279Z,6.53
2018-07-04T04:35:50.147Z,7.00
2018-07-04T04:38:29.782Z,6.80
2018-07-04T04:41:09.432Z,6.90
2018-07-04T04:43:49.036Z,9.33
2018-07-04T04:46:28.953Z,9.27
2018-07-04T04:49:08.749Z,6.63
2018-07-04T04:51:48.416Z,7.67
2018-07-04T04:54:28.180Z,8.83
2018-07-04T04:57:07.895Z,6.37
2018-07-04T04:59:47.521Z,8.30
2018-07-04T05:02:27.298Z,6.83
2018-07-04T05:05:07.067Z,7.03
2018-07-04T05:07:46.896Z,8.97
2018-07-04T05:10:26.634Z,6.83
2018-07-04T05:13:06.410Z,6.93
2018-07-04T05:15:46.364Z,7.30
2018-07-04T05:18:26.123Z,9.20
2018-07-04T05:21:05.758Z,6.80
2018-07-04T05:23:45.350Z,6.77
2018-07-04T05:26:25.014Z,7.53
2018-07-04T05:29:04.762Z,7.70
2018-07-04T05:31:44.435Z,6.20
2018-07-04T05:34:24.288Z,7.17
2018-07-04T05:37:04.191Z,6.00
2018-07-04T05:39:44.254Z,7.70
2018-07-04T05:42:23.784Z,8.37
2018-07-04T05:45:03.679Z,8.43
2018-07-04T05:47:43.120Z,6.93
2018-07-04T05:50:22.908Z,7.73
2018-07-04T05:53:02.666Z,6.97
2018-07-04T05:55:42.462Z,7.10
2018-07-04T05:58:22.153Z,7.53
2018-07-04T06:01:01.823Z,7.37
2018-07-04T06:03:41.668Z,8.03
2018-07-04T06:06:21.671Z,8.70
2018-07-04T06:09:01.610Z,7.57
2018-07-04T06:11:41.345Z,7.50
2018-07-04T06:14:20.979Z,6.63
2018-07-04T06:17:00.832Z,5.70
2018-07-04T06:19:40.679Z,7.23
2018-07-04T06:22:20.497Z,8.33
2018-07-04T06:25:00.315Z,6.60
2018-07-04T06:27:40.064Z,7.33
2018-07-04T06:30:19.835Z,7.50
2018-07-04T06:32:59.561Z,8.13
2018-07-04T06:35:33.238Z,10.07
2018-07-04T06:38:00.671Z,7.73
2018-07-04T06:40:28.066Z,7.53
2018-07-04T06:42:55.436Z,10.10
2018-07-04T06:45:22.823Z,7.40
2018-07-04T06:47:50.246Z,9.20
2018-07-04T06:50:17.641Z,7.13
2018-07-04T06:52:45.051Z,6.73
2018-07-04T06:55:12.419Z,6.60
2018-07-04T06:57:39.762Z,6.10
2018-07-04T07:00:07.447Z,6.80
2018-07-04T07:02:34.865Z,9.07
2018-07-04T07:05:14.736Z,7.17
2018-07-04T07:07:54.604Z,6.80
2018-07-04T07:10:34.442Z,7.57
2018-07-04T07:13:14.218Z,6.83
2018-07-04T07:15:53.834Z,7.80
2018-07-04T07:18:33.692Z,7.43
2018-07-04T07:21:13.412Z,6.03
2018-07-04T07:23:53.077Z,4.90
2018-07-04T07:26:32.869Z,10.97
2018-07-04T07:29:12.685Z,4.63
2018-07-04T07:31:52.357Z,6.10
2018-07-04T07:34:32.134Z,5.27
2018-07-04T07:37:11.922Z,4.87
2018-07-04T07:39:51.456Z,10.77
2018-07-04T07:42:31.131Z,5.13
2018-07-04T07:45:10.858Z,6.63
2018-07-04T07:47:50.674Z,6.70
2018-07-04T07:50:30.466Z,5.87
2018-07-04T07:53:10.194Z,5.17
2018-07-04T07:55:49.926Z,5.40
2018-07-04T07:58:29.743Z,6.33
2018-07-04T08:01:09.545Z,5.90
2018-07-04T08:03:49.266Z,4.57
2018-07-04T08:06:29.091Z,5.13
2018-07-04T08:09:08.804Z,5.13
2018-07-04T08:11:48.443Z,4.60
2018-07-04T08:14:28.438Z,4.37
2018-07-04T08:17:08.335Z,5.07
2018-07-04T08:19:48.190Z,5.57
2018-07-04T08:22:27.894Z,4.00
2018-07-04T08:25:07.754Z,4.57
2018-07-04T08:27:47.670Z,4.50
2018-07-04T08:30:27.637Z,4.60
2018-07-04T08:33:07.308Z,5.20
2018-07-04T08:35:47.010Z,5.17
2018-07-04T08:38:26.783Z,6.10
2018-07-04T08:41:06.433Z,5.63
2018-07-04T08:43:46.170Z,6.10
2018-07-04T08:46:25.767Z,5.23
2018-07-04T08:49:05.601Z,4.67
2018-07-04T08:51:45.276Z,7.67
2018-07-04T08:54:25.247Z,5.97
2018-07-04T08:57:05.116Z,5.60
2018-07-04T08:59:44.764Z,9.50
2018-07-04T09:02:24.454Z,8.37
2018-07-04T09:05:04.088Z,5.60
2018-07-04T09:07:44.458Z,5.53
2018-07-04T09:10:24.393Z,8.50
2018-07-04T09:13:04.079Z,7.60
2018-07-04T09:15:44.075Z,5.70
2018-07-04T09:18:24.034Z,4.63
2018-07-04T09:21:03.936Z,6.20
2018-07-04T09:23:43.783Z,6.90
2018-07-04T09:26:23.583Z,5.60
2018-07-04T09:29:03.361Z,4.40
2018-07-04T09:31:43.068Z,4.80
2018-07-04T09:34:22.782Z,4.77
2018-07-04T09:37:02.542Z,6.90
2018-07-04T09:39:42.360Z,5.00
2018-07-04T09:42:22.096Z,5.47
2018-07-04T09:45:01.844Z,5.63
2018-07-04T09:47:41.653Z,4.70
2018-07-04T09:50:21.481Z,4.70
2018-07-04T09:53:01.344Z,7.00
2018-07-04T09:55:41.159Z,9.27
2018-07-04T09:58:20.808Z,5.30
2018-07-04T10:01:05.992Z,5.70
2018-07-04T10:03:45.769Z,7.20
2018-07-04T10:06:25.716Z,7.57
2018-07-04T10:09:05.637Z,12.67
2018-07-04T10:11:45.298Z,8.87
2018-07-04T10:14:25.133Z,9.17
2018-07-04T10:17:04.850Z,15.50
2018-07-04T10:19:44.474Z,9.27
2018-07-04T10:22:24.152Z,9.40
2018-07-04T10:24:57.822Z,11.50
2018-07-04T10:27:37.557Z,8.40
2018-07-04T10:30:17.434Z,9.83
2018-07-04T10:32:57.183Z,10.30
2018-07-04T10:35:37.655Z,9.70
2018-07-04T10:38:17.490Z,7.70
2018-07-04T10:40:57.363Z,8.63
2018-07-04T10:43:37.071Z,6.83
2018-07-04T10:46:16.921Z,7.27
2018-07-04T10:48:56.625Z,8.63
2018-07-04T10:51:36.486Z,10.40
2018-07-04T10:54:16.275Z,8.00
2018-07-04T10:56:56.169Z,8.30
2018-07-04T10:59:35.969Z,8.60
2018-07-04T11:02:15.723Z,8.83
2018-07-04T11:04:55.659Z,13.03
2018-07-04T11:07:35.500Z,9.80
2018-07-04T11:10:15.279Z,9.30
2018-07-04T11:12:54.928Z,10.33
2018-07-04T11:15:34.749Z,9.77
2018-07-04T11:18:08.591Z,9.43
2018-07-04T11:20:48.436Z,10.80
2018-07-04T11:23:28.217Z,9.70
2018-07-04T11:26:07.927Z,8.50
2018-07-04T11:28:47.838Z,10.63
2018-07-04T11:31:27.703Z,9.73
2018-07-04T11:34:07.448Z,9.00
2018-07-04T11:36:47.173Z,7.30
2018-07-04T11:39:27.052Z,11.57
2018-07-04T11:42:06.652Z,6.63
2018-07-04T11:44:40.578Z,6.17
2018-07-04T11:47:08.027Z,11.13
2018-07-04T11:49:35.453Z,5.43
2018-07-04T11:52:02.850Z,5.93
2018-07-04T11:54:30.317Z,6.40
2018-07-04T11:56:57.749Z,6.27
2018-07-04T11:59:25.175Z,6.07
2018-07-04T12:01:52.741Z,6.10
2018-07-04T12:04:32.544Z,6.23
2018-07-04T12:07:03.967Z,6.80
2018-07-04T12:09:31.393Z,6.20
2018-07-04T12:11:59.103Z,8.13
2018-07-04T12:14:26.552Z,6.47
2018-07-04T12:16:53.971Z,7.13
2018-07-04T12:19:21.398Z,5.97
2018-07-04T12:21:48.876Z,6.50
2018-07-04T12:24:16.312Z,5.60
2018-07-04T12:26:43.885Z,4.60
2018-07-04T12:29:11.584Z,4.63
2018-07-04T12:31:39.708Z,4.03
2018-07-04T12:34:07.255Z,5.23
2018-07-04T12:36:35.093Z,5.03
2018-07-04T12:39:02.582Z,4.53
2018-07-04T12:41:30.055Z,5.33
2018-07-04T12:43:57.508Z,3.37
2018-07-04T12:46:24.866Z,3.70
2018-07-04T12:48:56.430Z,4.53
2018-07-04T12:51:23.787Z,4.77
2018-07-04T12:53:51.243Z,3.00
2018-07-04T12:56:31.004Z,3.70
2018-07-04T12:59:10.687Z,2.80
2018-07-04T13:01:50.442Z,2.97
2018-07-04T13:04:30.233Z,2.50
2018-07-04T13:07:09.982Z,2.00
2018-07-04T13:09:49.735Z,2.30
2018-07-04T13:12:29.368Z,2.43
2018-07-04T13:15:09.008Z,2.10
2018-07-04T13:17:48.597Z,2.40
2018-07-04T13:20:28.886Z,1.90
2018-07-04T13:23:08.529Z,2.10
2018-07-04T13:25:48.193Z,2.60
2018-07-04T13:28:28.112Z,2.27
2018-07-04T13:31:08.044Z,3.03
2018-07-04T13:33:47.994Z,2.37
2018-07-04T13:36:27.781Z,2.13
2018-07-04T13:39:07.640Z,2.20
2018-07-04T13:41:47.432Z,2.50
2018-07-04T13:44:27.262Z,2.53
2018-07-04T13:47:07.378Z,2.40
2018-07-04T13:49:47.057Z,2.40
2018-07-04T13:58:20.462Z,2.17
2018-07-04T14:01:00.214Z,5.30
2018-07-04T14:03:40.008Z,4.80
2018-07-04T14:06:20.296Z,3.43
2018-07-04T14:09:00.154Z,4.10
2018-07-04T14:11:39.938Z,3.77
2018-07-04T14:17:06.036Z,3.83
2018-07-04T14:19:45.877Z,4.00
2018-07-04T14:22:25.897Z,4.67
2018-07-04T14:25:17.071Z,4.97
2018-07-04T14:27:56.969Z,5.40
2018-07-04T14:30:36.865Z,6.47
2018-07-04T14:33:16.606Z,5.00
2018-07-04T14:35:56.348Z,4.63
2018-07-04T14:38:36.210Z,6.03
2018-07-04T14:41:16.063Z,4.60
2018-07-04T14:43:49.978Z,6.50
2018-07-04T14:46:29.689Z,6.83
2018-07-04T14:49:16.500Z,4.70
2018-07-04T14:51:56.220Z,5.33
2018-07-04T14:54:35.942Z,4.50
2018-07-04T14:57:15.649Z,4.90
2018-07-04T14:59:55.367Z,4.70
2018-07-04T15:02:35.120Z,4.50
2018-07-04T15:05:14.795Z,4.83
2018-07-04T15:07:54.614Z,7.17
2018-07-04T15:10:34.566Z,5.07
2018-07-04T15:13:14.311Z,5.27
2018-07-04T15:15:54.010Z,5.13
2018-07-04T15:18:33.780Z,6.93
2018-07-04T15:21:13.504Z,4.87
2018-07-04T15:23:53.778Z,5.33
2018-07-04T15:26:33.449Z,4.73
2018-07-04T15:29:13.144Z,4.00
2018-07-04T15:31:53.043Z,6.40
2018-07-04T15:34:32.988Z,5.90
2018-07-04T15:37:12.725Z,7.17
2018-07-04T15:39:52.462Z,6.23
2018-07-04T15:42:32.342Z,4.73
2018-07-04T15:45:06.193Z,4.60
2018-07-04T15:47:46.088Z,5.10
2018-07-04T15:50:25.856Z,4.57
2018-07-04T15:53:05.830Z,4.10
2018-07-04T15:55:45.737Z,4.23
2018-07-04T15:58:25.616Z,4.30
2018-07-04T16:01:05.505Z,4.10
2018-07-04T16:03:45.180Z,4.43
2018-07-04T16:06:25.008Z,4.77
2018-07-04T16:09:05.489Z,3.57
2018-07-04T16:11:45.629Z,3.20
2018-07-04T16:14:25.510Z,3.50
2018-07-04T16:17:05.629Z,6.40
2018-07-04T16:19:45.726Z,3.43
2018-07-04T16:22:25.611Z,3.40
2018-07-04T16:25:05.304Z,4.13
2018-07-04T16:27:50.680Z,3.77
2018-07-04T16:30:30.453Z,4.27
2018-07-04T16:33:10.356Z,3.20
2018-07-04T16:35:50.252Z,3.37
2018-07-04T16:38:30.147Z,3.20
2018-07-04T16:41:10.014Z,6.20
2018-07-04T16:43:43.874Z,8.13
2018-07-04T16:46:28.524Z,4.70
2018-07-04T16:49:08.395Z,4.33
2018-07-04T16:51:49.253Z,3.30
2018-07-04T16:57:23.771Z,4.10
2018-07-04T17:00:03.563Z,4.27
2018-07-04T17:05:42.421Z,4.20
2018-07-04T17:08:22.385Z,3.30
2018-07-04T17:11:07.810Z,3.67
2018-07-04T17:13:47.486Z,3.93
2018-07-04T17:19:22.764Z,4.40
2018-07-04T17:22:02.408Z,4.40
2018-07-04T17:24:42.230Z,6.60
2018-07-04T17:27:21.977Z,5.07
2018-07-04T17:30:01.799Z,9.80
2018-07-04T17:32:41.742Z,4.57
2018-07-04T17:35:21.691Z,4.57
2018-07-04T17:38:01.627Z,5.97
2018-07-04T17:40:43.211Z,4.23
2018-07-04T17:43:22.916Z,4.83
2018-07-04T17:46:02.597Z,4.70
2018-07-04T17:48:42.334Z,5.80
2018-07-04T17:51:22.105Z,4.50
2018-07-04T17:54:01.853Z,4.63
2018-07-04T17:56:41.648Z,5.37
2018-07-04T17:59:21.447Z,6.33
2018-07-04T18:02:01.167Z,5.27
2018-07-04T18:04:40.968Z,4.50
2018-07-04T18:07:24.547Z,6.20
2018-07-04T18:10:04.336Z,4.60
2018-07-04T18:12:44.112Z,5.90
2018-07-04T18:15:23.995Z,6.53
2018-07-04T18:18:10.720Z,6.73
2018-07-04T18:20:50.540Z,8.20
2018-07-04T18:23:30.080Z,5.10
2018-07-04T18:26:10.007Z,6.13
2018-07-04T18:28:49.945Z,10.53
2018-07-04T18:31:29.623Z,6.73
2018-07-04T18:34:09.629Z,6.53
2018-07-04T18:36:49.478Z,9.20
2018-07-04T18:39:29.329Z,5.00
2018-07-04T18:42:09.189Z,5.20
2018-07-04T18:44:49.026Z,6.90
2018-07-04T18:47:28.773Z,10.60
2018-07-04T18:50:08.701Z,6.30
2018-07-04T18:52:48.512Z,6.13
2018-07-04T18:55:28.290Z,6.00
2018-07-04T18:58:08.103Z,5.20
2018-07-04T19:00:47.884Z,11.17
2018-07-04T19:03:27.859Z,7.23
2018-07-04T19:06:07.942Z,5.57
2018-07-04T19:08:47.748Z,5.20
2018-07-04T19:11:27.515Z,6.83
2018-07-04T19:14:08.218Z,7.43
2018-07-04T19:16:53.446Z,9.97
2018-07-04T19:19:33.456Z,8.37
2018-07-04T19:22:13.317Z,7.00
2018-07-04T19:24:53.108Z,7.67
2018-07-04T19:27:38.674Z,9.10
2018-07-04T19:30:18.407Z,6.70
2018-07-04T19:32:58.182Z,7.43
2018-07-04T19:38:35.709Z,7.20
2018-07-04T19:41:15.652Z,7.87
2018-07-04T19:43:55.578Z,8.73
2018-07-04T19:46:35.220Z,8.20
2018-07-04T19:49:15.832Z,6.17
2018-07-04T19:51:55.753Z,6.90
2018-07-04T19:54:35.303Z,7.70
2018-07-04T19:57:15.161Z,7.40
2018-07-04T19:59:55.049Z,6.17
2018-07-04T20:02:34.875Z,6.10
2018-07-04T20:05:20.625Z,16.87
2018-07-04T20:08:00.556Z,7.87
2018-07-04T20:10:40.514Z,9.10
2018-07-04T20:13:20.463Z,8.03
2018-07-04T20:16:01.146Z,7.93
2018-07-04T20:18:41.151Z,9.10
2018-07-04T20:21:20.943Z,9.27
2018-07-04T20:24:00.722Z,12.00
2018-07-04T20:26:40.455Z,8.97
2018-07-04T20:29:20.470Z,9.07
2018-07-04T20:32:00.207Z,7.20
2018-07-04T20:34:39.808Z,7.83
2018-07-04T20:37:19.671Z,8.20
2018-07-04T20:39:59.772Z,8.13
2018-07-04T20:42:39.438Z,9.10
2018-07-04T20:45:19.077Z,7.10
2018-07-04T20:47:58.817Z,7.73
2018-07-04T20:50:38.597Z,7.50
2018-07-04T20:53:18.385Z,7.03
2018-07-04T20:55:58.191Z,9.07
2018-07-04T20:58:37.957Z,7.33
2018-07-04T21:01:17.902Z,7.17
2018-07-04T21:03:57.614Z,9.73
2018-07-04T21:06:37.617Z,8.60
2018-07-04T21:09:17.283Z,8.87
2018-07-04T21:11:57.162Z,9.40
2018-07-04T21:14:36.835Z,10.10
2018-07-04T21:17:16.590Z,8.70
2018-07-04T21:19:56.345Z,8.57
2018-07-04T21:22:36.146Z,8.60
2018-07-04T21:25:15.837Z,8.10
2018-07-04T21:27:55.577Z,10.73
2018-07-04T21:30:35.274Z,8.23
2018-07-04T21:33:14.969Z,7.80
2018-07-04T21:35:54.831Z,9.80
2018-07-04T21:38:34.509Z,8.30
2018-07-04T21:41:14.155Z,9.80
2018-07-04T21:43:53.909Z,8.73
2018-07-04T21:46:33.663Z,9.17
2018-07-04T21:49:13.430Z,8.33
2018-07-04T21:51:53.179Z,8.07
2018-07-04T21:54:33.024Z,8.93
2018-07-04T21:57:12.769Z,9.63
2018-07-04T21:59:52.466Z,10.23
2018-07-04T22:02:32.242Z,8.20
2018-07-04T22:05:05.980Z,9.17
2018-07-04T22:07:45.644Z,9.20
2018-07-04T22:10:25.473Z,8.93
2018-07-04T22:13:05.158Z,8.50
2018-07-04T22:15:44.984Z,9.73
2018-07-04T22:18:24.827Z,9.60
2018-07-04T22:21:04.600Z,10.90
2018-07-04T22:23:44.474Z,8.57
2018-07-04T22:26:24.390Z,8.43
2018-07-04T22:29:05.141Z,8.37
2018-07-04T22:31:44.836Z,9.07
2018-07-04T22:34:18.552Z,9.23
2018-07-04T22:36:58.513Z,9.33
2018-07-04T22:39:38.303Z,9.00
2018-07-04T22:42:18.105Z,9.43
2018-07-04T22:44:57.880Z,13.63
2018-07-04T22:47:37.652Z,11.20
2018-07-04T22:50:17.407Z,8.70
2018-07-04T22:52:57.361Z,10.23
2018-07-04T22:55:37.025Z,9.80
2018-07-04T22:58:16.801Z,10.83
2018-07-04T23:00:56.512Z,10.40
2018-07-04T23:03:36.149Z,9.50
2018-07-04T23:06:15.983Z,10.00
2018-07-04T23:08:55.694Z,10.17
2018-07-04T23:11:35.530Z,11.83
2018-07-04T23:14:15.298Z,10.43
2018-07-04T23:16:55.078Z,11.13
2018-07-04T23:19:34.697Z,10.30
2018-07-04T23:22:19.770Z,13.53
2018-07-04T23:24:59.490Z,11.60
2018-07-04T23:27:39.306Z,12.70
2018-07-04T23:30:19.041Z,10.97
2018-07-04T23:32:58.887Z,11.50
2018-07-04T23:35:38.655Z,11.57
2018-07-04T23:38:18.514Z,13.23
2018-07-04T23:40:58.205Z,12.20
2018-07-04T23:43:37.923Z,13.73
2018-07-04T23:46:17.581Z,13.17
2018-07-04T23:48:57.363Z,13.20
2018-07-04T23:51:37.229Z,14.53
2018-07-04T23:54:16.948Z,12.77
2018-07-04T23:56:56.668Z,12.63
2018-07-04T23:59:36.460Z,13.00
